Time;durP1;ratioP1;P1;durP2;ratioP2;P2;SDS_P1;SDS_P2;PMS_P1;PMS_P2;Temp;Humidity;BMP_temperature;BMP_pressure;BME280_temperature;BME280_humidity;BME280_pressure;Samples;Min_cycle;Max_cycle;Signal;HPM_P1;HPM_P2
2022/12/04 00:02:16;;;;;;;42.85;29.92;;;;;;;0.13;100.00;95411.13;5068051;28;24442;-71
2022/12/04 00:04:43;;;;;;;42.08;29.80;;;;;;;-0.11;100.00;95420.25;5062663;28;24431;-70
2022/12/04 00:07:11;;;;;;;45.75;29.58;;;;;;;0.20;100.00;95417.72;5057950;28;25039;-71
2022/12/04 00:09:37;;;;;;;42.60;30.13;;;;;;;0.14;100.00;95418.72;5064417;28;24454;-71
2022/12/04 00:12:04;;;;;;;37.35;27.35;;;;;;;0.21;100.00;95409.19;5068380;28;24988;-70
2022/12/04 00:14:31;;;;;;;41.58;29.00;;;;;;;0.17;100.00;95418.63;5064859;28;24446;-67
2022/12/04 00:16:57;;;;;;;37.75;28.27;;;;;;;0.21;100.00;95417.66;5057884;28;25003;-71
2022/12/04 00:19:24;;;;;;;42.28;29.75;;;;;;;0.11;100.00;95412.88;5063418;28;24437;-69
2022/12/04 00:21:51;;;;;;;43.03;29.10;;;;;;;0.13;100.00;95408.59;5065986;28;24442;-71
2022/12/04 00:24:18;;;;;;;37.93;28.80;;;;;;;0.17;100.00;95411.00;5057620;28;24793;-71
2022/12/04 00:26:45;;;;;;;37.33;28.13;;;;;;;0.22;100.00;95409.19;5065151;28;24975;-71
2022/12/04 00:29:13;;;;;;;40.17;28.73;;;;;;;0.11;100.00;95407.78;5056556;28;25413;-70
2022/12/04 00:31:40;;;;;;;38.72;29.23;;;;;;;-0.01;100.00;95416.59;5062899;28;24466;-70
2022/12/04 00:34:06;;;;;;;42.35;29.10;;;;;;;0.06;100.00;95412.19;5060324;28;25042;-69
2022/12/04 00:36:33;;;;;;;41.03;30.30;;;;;;;0.04;100.00;95402.06;5060626;28;24447;-70
2022/12/04 00:39:00;;;;;;;41.25;29.30;;;;;;;-0.01;100.00;95396.22;5062202;28;24431;-70
2022/12/04 00:41:30;;;;;;;40.15;28.15;;;;;;;0.14;100.00;95398.34;5068986;28;25026;-70
2022/12/04 00:43:57;;;;;;;37.37;28.30;;;;;;;0.13;100.00;95394.13;5055792;28;24434;-70
2022/12/04 00:46:23;;;;;;;39.22;28.15;;;;;;;0.15;100.00;95405.13;5061330;28;24442;-70
2022/12/04 00:48:50;;;;;;;37.90;28.67;;;;;;;0.26;100.00;95401.44;5061819;28;24461;-71
2022/12/04 00:51:19;;;;;;;40.33;28.42;;;;;;;0.34;100.00;95400.34;5068556;28;24431;-68
2022/12/04 00:53:46;;;;;;;37.75;29.20;;;;;;;0.30;100.00;95397.91;5055471;28;24439;-70
2022/12/04 00:56:16;;;;;;;43.08;31.40;;;;;;;0.15;100.00;95407.69;5061944;28;24441;-69
2022/12/04 00:58:44;;;;;;;42.67;30.10;;;;;;;0.10;100.00;95401.84;5062863;28;24480;-70
2022/12/04 01:01:14;;;;;;;47.25;31.27;;;;;;;0.18;100.00;95402.47;5068813;28;24435;-70
2022/12/04 01:03:41;;;;;;;46.00;32.38;;;;;;;0.18;100.00;95401.66;5056090;28;24443;-71
2022/12/04 01:06:17;;;;;;;47.13;32.00;;;;;;;0.13;100.00;95398.41;5057082;28;25004;-70
2022/12/04 01:08:44;;;;;;;47.33;31.52;;;;;;;-0.09;100.00;95399.00;5059230;28;24446;-70
2022/12/04 01:11:10;;;;;;;46.27;29.90;;;;;;;-0.14;100.00;95403.38;5068433;28;24488;-70
2022/12/04 01:13:37;;;;;;;47.88;30.02;;;;;;;-0.08;100.00;95402.38;5055883;28;24432;-70
2022/12/04 01:16:05;;;;;;;44.38;31.20;;;;;;;0.05;100.00;95405.44;5062280;28;24446;-69
2022/12/04 01:18:31;;;;;;;43.92;29.77;;;;;;;-0.02;100.00;95405.59;5064336;28;24434;-70
2022/12/04 01:20:58;;;;;;;46.13;30.58;;;;;;;0.07;100.00;95404.47;5064107;28;24790;-69
2022/12/04 01:23:24;;;;;;;44.47;30.27;;;;;;;-0.07;100.00;95397.25;5056692;28;24439;-69
2022/12/04 01:25:53;;;;;;;39.92;30.08;;;;;;;-0.04;100.00;95407.34;5061516;28;24434;-69
2022/12/04 01:28:19;;;;;;;44.88;31.30;;;;;;;0.07;100.00;95401.09;5060782;28;24449;-69
2022/12/04 01:30:59;;;;;;;40.03;29.17;;;;;;;0.05;100.00;95403.72;5064954;28;24481;-69
2022/12/04 01:33:27;;;;;;;45.60;32.33;;;;;;;0.34;100.00;95392.72;5056476;28;24435;-69
2022/12/04 01:35:54;;;;;;;42.58;31.40;;;;;;;0.36;100.00;95392.66;5062531;28;24466;-69
2022/12/04 01:38:21;;;;;;;42.40;31.10;;;;;;;0.23;100.00;95389.63;5060861;28;24983;-69
2022/12/04 01:40:47;;;;;;;44.17;31.40;;;;;;;0.32;100.00;95394.44;5063730;28;24433;-69
2022/12/04 01:43:14;;;;;;;46.15;31.52;;;;;;;0.36;100.00;95400.28;5060355;28;24454;-69
2022/12/04 01:45:42;;;;;;;44.80;29.88;;;;;;;0.24;100.00;95389.56;5064367;28;24438;-69
2022/12/04 01:48:17;;;;;;;48.87;32.10;;;;;;;0.27;100.00;95396.31;5069414;28;24441;-70
2022/12/04 01:50:47;;;;;;;40.03;29.73;;;;;;;0.39;100.00;95402.75;5070090;28;24451;-70
2022/12/04 01:53:15;;;;;;;44.33;30.35;;;;;;;0.22;100.00;95393.03;5060284;28;24443;-70
2022/12/04 01:55:41;;;;;;;47.05;30.85;;;;;;;0.19;100.00;95393.97;5064171;28;24442;-70
2022/12/04 01:58:09;;;;;;;39.50;28.77;;;;;;;0.22;100.00;95393.03;5068988;28;24454;-70
2022/12/04 02:00:36;;;;;;;45.83;30.23;;;;;;;0.11;100.00;95397.59;5065332;28;25069;-70
2022/12/04 02:03:02;;;;;;;43.72;30.38;;;;;;;0.38;100.00;95398.53;5060384;28;24451;-70
2022/12/04 02:05:29;;;;;;;42.78;29.65;;;;;;;0.11;100.00;95397.59;5062907;28;24813;-70
2022/12/04 02:08:01;;;;;;;45.55;30.75;;;;;;;0.07;100.00;95403.66;5068880;28;24435;-70
2022/12/04 02:10:36;;;;;;;40.58;30.08;;;;;;;0.20;100.00;95400.72;5066569;28;24462;-70
2022/12/04 02:13:10;;;;;;;39.50;28.20;;;;;;;0.19;100.00;95396.53;5059885;28;24438;-70
2022/12/04 02:15:45;;;;;;;39.03;28.93;;;;;;;-0.01;100.00;95391.97;5065435;28;24493;-70
2022/12/04 02:18:20;;;;;;;45.17;30.60;;;;;;;0.21;100.00;95383.72;5070971;28;25050;-70
2022/12/04 02:20:57;;;;;;;41.15;30.55;;;;;;;0.38;100.00;95386.63;5066672;28;24787;-70
2022/12/04 02:23:54;;;;;;;43.55;30.80;;;;;;;0.33;100.00;95390.19;5068874;28;24800;-70
2022/12/04 02:26:39;;;;;;;43.50;29.73;;;;;;;0.28;100.00;95384.41;5071442;28;25007;-70
2022/12/04 02:29:15;;;;;;;45.65;29.77;;;;;;;0.35;100.00;95376.53;5069317;28;24998;-70
2022/12/04 02:31:48;;;;;;;39.83;30.42;;;;;;;0.26;100.00;95374.28;5064622;28;24430;-70
2022/12/04 02:34:21;;;;;;;41.78;29.90;;;;;;;0.29;100.00;95379.25;5065030;28;24458;-70
2022/12/04 02:36:54;;;;;;;37.97;28.27;;;;;;;0.17;100.00;95379.59;5067841;28;24462;-70
2022/12/04 02:39:24;;;;;;;42.00;29.33;;;;;;;0.19;100.00;95378.69;5066028;28;24442;-70
2022/12/04 02:41:56;;;;;;;37.13;27.83;;;;;;;0.12;100.00;95387.38;5064476;28;24454;-70
2022/12/04 02:44:29;;;;;;;35.08;26.45;;;;;;;0.38;100.00;95378.16;5064819;28;24430;-70
2022/12/04 02:46:59;;;;;;;36.97;27.65;;;;;;;0.51;100.00;95369.25;5067630;28;24481;-70
2022/12/04 02:49:31;;;;;;;45.77;28.50;;;;;;;0.36;100.00;95377.38;5062707;28;24534;-70
2022/12/04 02:52:00;;;;;;;39.63;28.95;;;;;;;0.49;100.00;95383.78;5057256;28;24489;-71
2022/12/04 02:54:34;;;;;;;37.28;27.33;;;;;;;0.15;100.00;95381.34;5062416;28;24481;-69
2022/12/04 02:57:02;;;;;;;37.78;28.27;;;;;;;-0.11;100.00;95374.44;5065314;28;24438;-70
2022/12/04 02:59:34;;;;;;;36.83;28.05;;;;;;;-0.05;100.00;95374.28;5064311;28;24515;-71
2022/12/04 03:02:07;;;;;;;39.22;28.73;;;;;;;-0.05;100.00;95372.56;5059029;28;24453;-70
2022/12/04 03:04:34;;;;;;;41.42;28.92;;;;;;;-0.04;100.00;95375.94;5062687;28;24909;-71
2022/12/04 03:07:06;;;;;;;43.90;28.42;;;;;;;0.14;100.00;95362.69;5059204;28;24472;-70
2022/12/04 03:09:37;;;;;;;36.45;27.77;;;;;;;0.14;100.00;95370.34;5067925;28;24450;-70
2022/12/04 03:12:11;;;;;;;44.83;28.50;;;;;;;0.21;100.00;95359.09;5056213;28;24458;-70
2022/12/04 03:14:43;;;;;;;40.95;29.25;;;;;;;0.42;100.00;95356.81;5060892;28;24956;-70
2022/12/04 03:17:16;;;;;;;33.60;26.10;;;;;;;0.30;100.00;95347.81;5063885;28;24993;-71
2022/12/04 03:19:47;;;;;;;35.88;26.75;;;;;;;0.18;100.00;95346.44;5059583;28;24443;-70
2022/12/04 03:22:17;;;;;;;36.87;27.57;;;;;;;0.26;100.00;95340.31;5056414;28;25018;-70
2022/12/04 03:24:48;;;;;;;34.45;26.92;;;;;;;0.11;100.00;95346.66;5065423;28;24443;-70
2022/12/04 03:27:18;;;;;;;36.97;26.50;;;;;;;0.14;100.00;95347.41;5070341;28;24434;-70
2022/12/04 03:29:52;;;;;;;37.08;27.58;;;;;;;0.41;100.00;95345.78;5060354;28;24447;-70
2022/12/04 03:32:25;;;;;;;36.80;28.75;;;;;;;0.39;100.00;95346.72;5059505;28;24453;-70
2022/12/04 03:34:57;;;;;;;37.38;26.40;;;;;;;0.15;100.00;95343.16;5066932;28;24450;-70
2022/12/04 03:37:32;;;;;;;36.05;26.55;;;;;;;0.19;100.00;95345.59;5070303;28;24435;-70
2022/12/04 03:40:06;;;;;;;34.00;26.10;;;;;;;0.00;100.00;95341.91;5057009;28;24449;-69
2022/12/04 03:42:38;;;;;;;38.00;27.58;;;;;;;-0.07;100.00;95345.50;5057652;28;24446;-70
2022/12/04 03:45:14;;;;;;;38.50;27.70;;;;;;;-0.17;100.00;95350.00;5068469;28;24431;-70
2022/12/04 03:47:46;;;;;;;33.97;25.60;;;;;;;0.01;100.00;95342.75;5064554;28;24441;-69
2022/12/04 03:50:17;;;;;;;32.35;25.17;;;;;;;0.13;100.00;95340.66;5064967;28;24473;-69
2022/12/04 03:52:50;;;;;;;33.40;23.60;;;;;;;-0.10;100.00;95323.50;5057661;28;25016;-69
2022/12/04 03:55:27;;;;;;;31.15;24.05;;;;;;;-0.06;100.00;95331.91;5063291;28;24477;-69
2022/12/04 03:57:59;;;;;;;27.13;21.92;;;;;;;-0.19;100.00;95340.75;5066053;28;24439;-69
2022/12/04 04:00:30;;;;;;;26.20;22.30;;;;;;;-0.09;100.00;95337.06;5067260;28;24438;-69
2022/12/04 04:03:03;;;;;;;29.35;23.00;;;;;;;0.06;100.00;95349.34;5053666;28;24481;-69
2022/12/04 04:05:31;;;;;;;29.17;22.30;;;;;;;0.13;100.00;95350.84;5058092;28;24433;-69
2022/12/04 04:10:44;;;;;;;32.42;24.63;;;;;;;0.47;100.00;95352.41;5066880;28;24542;-70
2022/12/04 04:24:29;;;;;;;31.07;24.87;;;;;;;0.13;100.00;95358.50;5025600;28;24824;-70
2022/12/04 04:26:57;;;;;;;31.15;23.13;;;;;;;0.28;100.00;95366.56;5068370;28;24439;-70
2022/12/04 04:29:24;;;;;;;30.42;25.00;;;;;;;0.45;100.00;95362.66;5067785;28;24435;-70
2022/12/04 04:31:59;;;;;;;31.83;26.23;;;;;;;0.33;100.00;95372.34;5061412;28;24455;-70
2022/12/04 04:34:34;;;;;;;38.88;27.05;;;;;;;0.23;100.00;95375.19;5059844;28;24442;-70
2022/12/04 04:37:07;;;;;;;37.05;27.45;;;;;;;0.42;100.00;95369.56;5061334;28;25369;-70
2022/12/04 04:39:39;;;;;;;31.40;26.23;;;;;;;0.42;100.00;95380.56;5066711;28;24431;-70
2022/12/04 04:42:14;;;;;;;36.07;25.13;;;;;;;0.29;100.00;95366.50;5060321;28;24452;-71
2022/12/04 04:44:47;;;;;;;31.58;26.25;;;;;;;0.36;100.00;95372.28;5065949;28;24434;-70
2022/12/04 04:47:21;;;;;;;31.45;24.98;;;;;;;0.31;100.00;95367.31;5065864;28;24431;-70
2022/12/04 04:49:50;;;;;;;35.73;26.33;;;;;;;0.29;100.00;95366.50;5065163;28;24446;-70
2022/12/04 04:52:19;;;;;;;30.80;25.55;;;;;;;0.29;100.00;95369.06;5057268;28;25060;-70
2022/12/04 04:54:46;;;;;;;32.63;27.50;;;;;;;0.27;100.00;95365.75;5058817;28;24439;-68
2022/12/04 04:57:13;;;;;;;38.00;27.27;;;;;;;0.17;100.00;95364.34;5058161;28;24442;-71
2022/12/04 04:59:39;;;;;;;36.60;27.75;;;;;;;0.14;100.00;95366.97;5065391;28;24443;-70
2022/12/04 05:02:06;;;;;;;38.38;28.13;;;;;;;-0.12;100.00;95365.16;5059050;28;24805;-70
2022/12/04 05:04:34;;;;;;;35.47;25.70;;;;;;;-0.03;100.00;95370.81;5064741;28;24437;-71
2022/12/04 05:07:00;;;;;;;31.30;25.83;;;;;;;-0.03;100.00;95370.00;5063677;28;24449;-70
2022/12/04 05:09:27;;;;;;;31.98;27.08;;;;;;;0.03;100.00;95369.81;5065867;28;24981;-71
2022/12/04 05:11:53;;;;;;;34.28;27.52;;;;;;;0.18;100.00;95366.81;5066210;28;24466;-70
2022/12/04 05:14:20;;;;;;;32.35;26.75;;;;;;;0.20;100.00;95367.63;5063515;28;24458;-70
2022/12/04 05:16:46;;;;;;;34.88;28.63;;;;;;;0.37;100.00;95366.28;5067930;28;24438;-69
2022/12/04 05:21:58;;;;;;;37.78;28.05;;;;;;;0.41;100.00;95360.25;5068499;28;24442;-70
2022/12/04 05:24:25;;;;;;;38.13;28.08;;;;;;;0.26;100.00;95355.59;5063362;28;24466;-68
2022/12/04 05:26:51;;;;;;;34.17;26.88;;;;;;;-0.02;100.00;95354.66;5065872;28;24809;-70
2022/12/04 05:29:18;;;;;;;35.55;26.98;;;;;;;-0.07;100.00;95363.31;5060862;28;24489;-70
2022/12/04 05:31:44;;;;;;;38.20;27.30;;;;;;;0.18;100.00;95350.72;5070894;28;24465;-70
2022/12/04 05:34:11;;;;;;;37.03;28.33;;;;;;;0.28;100.00;95359.75;5070045;28;24446;-70
2022/12/04 05:36:37;;;;;;;38.30;28.23;;;;;;;0.19;100.00;95358.31;5070728;28;24443;-70
2022/12/04 05:39:05;;;;;;;35.47;28.23;;;;;;;0.34;100.00;95356.22;5066463;28;24450;-70
2022/12/04 05:41:31;;;;;;;37.60;29.80;;;;;;;0.07;100.00;95351.00;5063898;28;24442;-70
2022/12/04 05:43:58;;;;;;;40.60;29.65;;;;;;;0.17;100.00;95357.53;5068314;28;24437;-70
2022/12/04 05:46:25;;;;;;;38.45;29.50;;;;;;;0.28;100.00;95359.75;5070100;28;24438;-70
2022/12/04 05:48:51;;;;;;;40.28;30.45;;;;;;;0.49;100.00;95358.31;5067924;28;24606;-70
2022/12/04 05:51:18;;;;;;;43.90;31.90;;;;;;;0.40;100.00;95361.09;5065469;28;24825;-70
2022/12/04 05:53:44;;;;;;;36.45;28.85;;;;;;;0.21;100.00;95354.00;5056895;28;24438;-70
2022/12/04 05:56:12;;;;;;;41.55;30.38;;;;;;;0.17;100.00;95352.44;5065457;28;24435;-70
2022/12/04 05:58:39;;;;;;;42.13;30.00;;;;;;;0.17;100.00;95354.97;5063184;28;24438;-70
2022/12/04 06:01:12;;;;;;;42.47;29.30;;;;;;;0.13;100.00;95357.66;5062903;28;24430;-69
2022/12/04 06:03:39;;;;;;;38.17;28.48;;;;;;;0.05;100.00;95364.69;5061335;28;24435;-70
2022/12/04 06:06:12;;;;;;;36.42;27.70;;;;;;;0.23;100.00;95366.72;5062980;28;24990;-69
2022/12/04 06:08:38;;;;;;;36.30;28.13;;;;;;;0.19;100.00;95363.41;5069227;28;24445;-69
2022/12/04 06:11:12;;;;;;;39.03;27.70;;;;;;;0.13;100.00;95365.31;5069345;28;24454;-69
2022/12/04 06:13:40;;;;;;;38.63;27.40;;;;;;;-0.06;100.00;95365.00;5069673;28;24442;-69
2022/12/04 06:16:11;;;;;;;34.35;26.67;;;;;;;0.11;100.00;95364.50;5060928;28;24992;-69
2022/12/04 06:18:38;;;;;;;37.58;27.08;;;;;;;0.15;100.00;95371.16;5070688;28;24435;-69
2022/12/04 06:21:04;;;;;;;33.25;25.42;;;;;;;0.16;100.00;95380.50;5064966;28;24423;-69
2022/12/04 06:23:31;;;;;;;33.72;24.95;;;;;;;-0.02;100.00;95377.59;5061629;28;24992;-69
2022/12/04 06:26:02;;;;;;;34.70;25.05;;;;;;;0.12;100.00;95377.19;5056861;28;24435;-70
2022/12/04 06:28:30;;;;;;;34.63;25.02;;;;;;;0.12;100.00;95371.28;5062703;28;24434;-70
2022/12/04 06:31:00;;;;;;;35.17;25.67;;;;;;;0.05;100.00;95369.78;5062769;28;24451;-70
2022/12/04 06:33:26;;;;;;;34.17;25.00;;;;;;;0.27;100.00;95375.09;5071016;28;24441;-70
2022/12/04 06:35:58;;;;;;;36.50;25.42;;;;;;;0.30;100.00;95364.78;5057350;28;24442;-70
2022/12/04 06:38:25;;;;;;;32.63;24.50;;;;;;;0.36;100.00;95372.28;5068345;28;24584;-70
2022/12/04 06:40:51;;;;;;;33.35;23.77;;;;;;;0.23;100.00;95369.25;5070556;28;24426;-70
2022/12/04 06:43:18;;;;;;;32.08;23.95;;;;;;;0.30;100.00;95367.34;5065847;28;24435;-70
2022/12/04 06:45:46;;;;;;;39.53;25.65;;;;;;;0.24;100.00;95371.75;5066365;28;24984;-69
2022/12/04 06:48:12;;;;;;;33.70;24.60;;;;;;;0.16;100.00;95368.59;5067775;28;24817;-69
2022/12/04 06:50:39;;;;;;;36.83;24.73;;;;;;;0.23;100.00;95371.81;5066221;28;24447;-69
2022/12/04 06:53:05;;;;;;;35.28;25.05;;;;;;;-0.08;100.00;95370.09;5069138;28;24442;-69
2022/12/04 06:55:32;;;;;;;33.20;23.90;;;;;;;0.17;100.00;95361.78;5066556;28;24434;-69
2022/12/04 06:57:58;;;;;;;35.15;24.25;;;;;;;0.06;100.00;95357.00;5069337;28;24442;-69
2022/12/04 07:00:24;;;;;;;42.20;23.83;;;;;;;0.17;100.00;95357.53;5061839;28;24801;-69
2022/12/04 07:02:52;;;;;;;28.98;23.35;;;;;;;-0.08;100.00;95352.28;5067477;28;24449;-70
2022/12/04 07:05:19;;;;;;;30.33;23.05;;;;;;;-0.25;100.00;95362.13;5061048;28;25007;-70
2022/12/04 07:07:45;;;;;;;32.78;23.27;;;;;;;0.18;100.00;95361.72;5067930;28;24454;-70
2022/12/04 07:10:12;;;;;;;32.73;22.73;;;;;;;0.31;100.00;95374.13;5069343;28;24436;-70
2022/12/04 07:12:39;;;;;;;38.05;23.83;;;;;;;0.15;100.00;95378.81;5056364;28;24455;-70
2022/12/04 07:15:06;;;;;;;33.50;24.55;;;;;;;0.12;100.00;95377.19;5068465;28;24445;-70
2022/12/04 07:17:32;;;;;;;35.45;23.25;;;;;;;0.07;100.00;95373.09;5070238;28;24441;-70
2022/12/04 07:20:00;;;;;;;29.65;22.45;;;;;;;-0.03;100.00;95383.56;5066994;28;24440;-69
2022/12/04 07:22:27;;;;;;;30.85;22.40;;;;;;;-0.08;100.00;95374.38;5063214;28;24449;-69
2022/12/04 07:24:53;;;;;;;29.77;22.67;;;;;;;0.04;100.00;95378.28;5063621;28;25016;-69
2022/12/04 07:27:20;;;;;;;34.20;24.40;;;;;;;0.36;100.00;95374.81;5070642;28;24431;-69
2022/12/04 07:29:46;;;;;;;32.47;24.63;;;;;;;0.29;100.00;95378.41;5063807;28;24433;-70
2022/12/04 07:32:13;;;;;;;34.90;25.17;;;;;;;0.40;100.00;95373.84;5060535;28;24461;-71
2022/12/04 07:34:39;;;;;;;34.65;26.08;;;;;;;0.28;100.00;95366.56;5066231;28;24431;-71
2022/12/04 07:37:07;;;;;;;32.95;25.10;;;;;;;0.14;100.00;95366.97;5069575;28;24445;-70
2022/12/04 07:39:34;;;;;;;35.10;24.65;;;;;;;0.08;100.00;95373.06;5067538;28;24846;-70
2022/12/04 07:42:00;;;;;;;35.97;25.02;;;;;;;0.27;100.00;95373.38;5062631;28;24486;-70
2022/12/04 07:44:27;;;;;;;34.38;25.27;;;;;;;0.32;100.00;95373.25;5060407;28;24439;-70
2022/12/04 07:46:53;;;;;;;35.58;25.00;;;;;;;0.21;100.00;95365.91;5068153;28;24430;-71
2022/12/04 07:49:20;;;;;;;35.40;27.17;;;;;;;0.21;100.00;95369.28;5065695;28;24438;-70
2022/12/04 07:51:46;;;;;;;38.58;26.73;;;;;;;0.00;100.00;95372.47;5065621;28;24525;-70
2022/12/04 07:54:14;;;;;;;42.85;27.10;;;;;;;-0.08;100.00;95372.66;5065129;28;24438;-70
2022/12/04 07:56:40;;;;;;;32.20;25.60;;;;;;;-0.01;100.00;95376.69;5068311;28;24445;-70
2022/12/04 07:59:07;;;;;;;39.07;26.23;;;;;;;-0.19;100.00;95371.28;5066995;28;24508;-71
2022/12/04 08:01:34;;;;;;;37.00;25.88;;;;;;;-0.12;100.00;95370.25;5058815;28;24988;-72
2022/12/04 08:04:02;;;;;;;36.88;27.42;;;;;;;-0.11;100.00;95369.34;5058520;28;24435;-71
2022/12/04 08:06:29;;;;;;;33.03;24.27;;;;;;;0.06;100.00;95359.53;5060938;28;24443;-71
2022/12/04 08:08:57;;;;;;;34.28;23.92;;;;;;;-0.19;100.00;95361.09;5065599;28;24433;-70
2022/12/04 08:11:27;;;;;;;30.23;24.33;;;;;;;-0.23;100.00;95367.16;5068506;28;24592;-67
2022/12/04 08:13:55;;;;;;;29.02;24.05;;;;;;;-0.25;100.00;95364.66;5065564;28;24427;-69
2022/12/04 08:16:22;;;;;;;30.63;23.80;;;;;;;-0.22;100.00;95369.69;5062614;28;24451;-69
2022/12/04 08:18:48;;;;;;;35.47;23.63;;;;;;;0.08;100.00;95375.63;5065630;28;24998;-69
2022/12/04 08:21:18;;;;;;;33.88;24.23;;;;;;;0.39;100.00;95382.38;5065857;28;24442;-70
2022/12/04 08:23:44;;;;;;;32.33;23.20;;;;;;;0.55;100.00;95383.56;5064020;28;24493;-69
2022/12/04 08:26:12;;;;;;;29.95;22.48;;;;;;;0.54;100.00;95384.47;5069374;28;24437;-70
2022/12/04 08:28:40;;;;;;;31.20;21.85;;;;;;;0.58;100.00;95391.13;5063501;28;24422;-70
2022/12/04 08:31:10;;;;;;;33.40;22.77;;;;;;;0.60;100.00;95388.56;5068694;28;24474;-70
2022/12/04 08:33:36;;;;;;;32.33;24.10;;;;;;;0.45;100.00;95400.03;5065940;28;24431;-70
2022/12/04 08:36:06;;;;;;;37.72;25.85;;;;;;;0.54;100.00;95401.47;5069628;28;24426;-70
2022/12/04 08:38:33;;;;;;;36.58;24.73;;;;;;;0.36;100.00;95406.22;5066367;28;25015;-70
2022/12/04 08:41:00;;;;;;;35.57;24.57;;;;;;;0.38;100.00;95403.66;5065397;28;24486;-70
2022/12/04 08:43:27;;;;;;;30.57;22.63;;;;;;;0.38;100.00;95408.75;5065893;28;24500;-70
2022/12/04 08:45:59;;;;;;;32.00;21.50;;;;;;;0.43;100.00;95417.06;5066002;28;24434;-70
2022/12/04 08:48:26;;;;;;;28.05;21.25;;;;;;;0.41;100.00;95417.13;5063858;28;24446;-70
2022/12/04 08:50:53;;;;;;;27.67;22.55;;;;;;;0.60;100.00;95419.97;5066935;28;24439;-69
2022/12/04 08:53:20;;;;;;;30.90;22.05;;;;;;;0.48;100.00;95413.53;5066235;28;24430;-69
2022/12/04 08:55:46;;;;;;;32.97;23.75;;;;;;;0.54;100.00;95409.94;5060379;28;24989;-70
2022/12/04 08:58:13;;;;;;;32.83;23.20;;;;;;;0.57;100.00;95406.47;5065885;28;25026;-70
2022/12/04 09:00:40;;;;;;;28.55;23.40;;;;;;;0.56;100.00;95415.84;5067719;28;24427;-70
2022/12/04 09:03:09;;;;;;;32.47;24.20;;;;;;;0.52;100.00;95410.88;5062301;28;24434;-69
2022/12/04 09:05:35;;;;;;;39.83;24.63;;;;;;;0.12;100.00;95405.22;5068687;28;24437;-69
2022/12/04 09:08:02;;;;;;;37.15;23.65;;;;;;;0.25;100.00;95398.03;5062266;28;24794;-70
2022/12/04 09:10:28;;;;;;;34.88;23.00;;;;;;;0.23;100.00;95399.81;5068518;28;24439;-70
2022/12/04 09:12:55;;;;;;;34.15;22.80;;;;;;;0.51;100.00;95407.47;5063274;28;24830;-70
2022/12/04 09:15:21;;;;;;;32.15;21.25;;;;;;;0.47;100.00;95414.38;5054636;28;24449;-70
2022/12/04 09:17:48;;;;;;;27.60;20.67;;;;;;;0.48;100.00;95421.16;5058740;28;24987;-70
2022/12/04 09:20:16;;;;;;;29.13;20.85;;;;;;;0.31;100.00;95415.72;5060145;28;24441;-70
2022/12/04 09:22:42;;;;;;;27.90;21.10;;;;;;;0.23;100.00;95413.38;5060345;28;24427;-70
2022/12/04 09:25:10;;;;;;;29.27;20.08;;;;;;;0.33;100.00;95402.91;5060584;28;24431;-70
2022/12/04 09:27:37;;;;;;;30.13;21.63;;;;;;;0.44;100.00;95406.00;5063978;28;24442;-70
2022/12/04 09:30:04;;;;;;;34.60;23.10;;;;;;;0.34;100.00;95409.72;5067478;28;24435;-71
2022/12/04 09:32:31;;;;;;;35.13;21.52;;;;;;;0.30;100.00;95411.50;5063071;28;24544;-70
2022/12/04 09:34:57;;;;;;;33.92;22.92;;;;;;;0.52;100.00;95409.19;5067672;28;24434;-70
2022/12/04 09:37:25;;;;;;;32.63;22.52;;;;;;;0.55;100.00;95403.97;5068660;28;24946;-70
2022/12/04 09:39:52;;;;;;;33.03;23.58;;;;;;;0.59;100.00;95405.53;5065311;28;24797;-70
2022/12/04 09:42:30;;;;;;;32.67;23.17;;;;;;;0.53;100.00;95392.16;5061702;28;24441;-78
2022/12/04 09:45:02;;;;;;;33.67;23.88;;;;;;;0.29;100.00;95386.06;5062033;28;24934;-70
2022/12/04 09:47:34;;;;;;;37.40;24.70;;;;;;;0.37;100.00;95384.13;5063054;28;24790;-71
2022/12/04 09:50:05;;;;;;;31.48;23.05;;;;;;;0.50;100.00;95377.78;5058742;28;24449;-72
2022/12/04 09:52:47;;;;;;;34.05;23.35;;;;;;;0.30;100.00;95382.63;5061877;28;24477;-70
2022/12/04 09:55:17;;;;;;;33.08;23.52;;;;;;;0.36;100.00;95375.66;5059621;28;24434;-70
2022/12/04 09:57:47;;;;;;;31.17;23.33;;;;;;;0.31;100.00;95369.88;5059539;28;25004;-70
2022/12/04 10:00:17;;;;;;;31.27;21.95;;;;;;;0.32;100.00;95368.16;5065263;28;24431;-70
2022/12/04 10:02:49;;;;;;;29.48;22.70;;;;;;;0.68;100.00;95368.78;5065843;28;24442;-69
2022/12/04 10:05:18;;;;;;;30.20;22.38;;;;;;;0.57;100.00;95350.44;5067714;28;24435;-70
2022/12/04 10:07:55;;;;;;;36.47;24.17;;;;;;;0.59;100.00;95352.03;5070385;28;24512;-70
2022/12/04 10:10:30;;;;;;;33.28;22.70;;;;;;;0.38;100.00;95347.59;5067578;28;24431;-70
2022/12/04 10:13:05;;;;;;;28.92;20.65;;;;;;;0.29;100.00;95352.94;5059368;28;24493;-70
2022/12/04 10:15:39;;;;;;;32.53;20.98;;;;;;;0.23;100.00;95343.78;5067861;28;25006;-69
2022/12/04 10:18:22;;;;;;;33.25;20.90;;;;;;;0.47;100.00;95339.66;5065865;28;24435;-70
2022/12/04 10:21:06;;;;;;;24.05;19.55;;;;;;;0.79;100.00;95335.31;5065967;28;24988;-70
2022/12/04 10:23:46;;;;;;;27.00;19.95;;;;;;;0.73;100.00;95342.25;5060951;28;24434;-70
2022/12/04 10:26:16;;;;;;;27.52;20.05;;;;;;;0.54;100.00;95341.16;5058682;28;25001;-70
2022/12/04 10:28:46;;;;;;;27.75;20.65;;;;;;;0.56;100.00;95331.75;5067671;28;24991;-70
2022/12/04 10:31:15;;;;;;;23.20;18.00;;;;;;;0.60;100.00;95330.78;5059537;28;24438;-70
2022/12/04 10:33:46;;;;;;;28.65;20.65;;;;;;;0.60;100.00;95322.31;5062869;28;24427;-70
2022/12/04 10:36:19;;;;;;;27.88;19.35;;;;;;;0.36;100.00;95313.69;5062369;28;25081;-70
2022/12/04 10:38:51;;;;;;;26.45;19.33;;;;;;;0.20;100.00;95318.41;5068110;28;24995;-69
2022/12/04 10:41:24;;;;;;;26.77;20.13;;;;;;;0.07;100.00;95317.09;5061759;28;24517;-69
2022/12/04 10:43:51;;;;;;;26.83;18.65;;;;;;;0.16;100.00;95321.94;5064136;28;24449;-70
2022/12/04 10:46:22;;;;;;;24.92;19.98;;;;;;;0.45;100.00;95333.81;5067988;28;24438;-70
2022/12/04 10:48:52;;;;;;;25.63;20.67;;;;;;;0.48;100.00;95338.78;5062470;28;24488;-70
2022/12/04 10:51:21;;;;;;;27.80;20.02;;;;;;;0.55;100.00;95339.44;5059298;28;25008;-70
2022/12/04 10:53:50;;;;;;;27.48;19.50;;;;;;;0.69;100.00;95342.41;5068843;28;24439;-70
2022/12/04 10:56:19;;;;;;;26.73;19.33;;;;;;;0.59;100.00;95341.84;5070965;28;24435;-70
2022/12/04 10:58:55;;;;;;;26.85;19.38;;;;;;;0.52;100.00;95340.38;5065104;28;24438;-70
2022/12/04 11:01:23;;;;;;;27.30;19.75;;;;;;;0.30;100.00;95341.88;5068661;28;24461;-70
2022/12/04 11:03:57;;;;;;;26.30;19.48;;;;;;;0.45;100.00;95337.19;5070192;28;24433;-70
2022/12/04 11:06:25;;;;;;;29.38;18.90;;;;;;;0.38;100.00;95334.88;5070504;28;24441;-70
2022/12/04 11:08:54;;;;;;;23.52;17.98;;;;;;;0.51;100.00;95332.75;5063209;28;24782;-70
2022/12/04 11:11:24;;;;;;;28.57;19.73;;;;;;;0.94;100.00;95345.00;5065064;28;25106;-70
2022/12/04 11:14:01;;;;;;;26.75;19.45;;;;;;;0.88;100.00;95346.03;5068687;28;24439;-70
2022/12/04 11:16:33;;;;;;;25.83;18.58;;;;;;;1.00;100.00;95351.63;5069880;28;24446;-70
2022/12/04 11:19:00;;;;;;;19.77;16.55;;;;;;;0.88;100.00;95342.66;5054877;28;24439;-69
2022/12/04 11:21:29;;;;;;;28.27;21.00;;;;;;;0.84;100.00;95335.97;5060155;28;24435;-69
2022/12/04 11:23:58;;;;;;;26.45;20.20;;;;;;;0.68;100.00;95333.09;5066110;28;25013;-69
2022/12/04 11:26:31;;;;;;;25.73;18.60;;;;;;;0.67;100.00;95345.00;5069060;28;24427;-69
2022/12/04 11:29:00;;;;;;;27.85;19.80;;;;;;;0.55;100.00;95345.34;5066871;28;24428;-69
2022/12/04 11:31:27;;;;;;;26.83;19.67;;;;;;;0.54;100.00;95347.97;5059738;28;24454;-69
2022/12/04 11:33:56;;;;;;;23.10;18.20;;;;;;;0.50;100.00;95328.56;5067696;28;24457;-70
2022/12/04 11:36:26;;;;;;;31.67;20.35;;;;;;;0.30;100.00;95330.00;5069452;28;24429;-70
2022/12/04 11:39:03;;;;;;;24.63;19.20;;;;;;;0.36;100.00;95327.25;5058591;28;24442;-70
2022/12/04 11:41:32;;;;;;;25.70;19.10;;;;;;;0.53;100.00;95334.41;5060564;28;24439;-70
2022/12/04 11:43:59;;;;;;;28.38;18.48;;;;;;;0.55;100.00;95321.59;5059840;28;24427;-70